Time;durP1;ratioP1;P1;durP2;ratioP2;P2;SDS_P1;SDS_P2;PMS_P1;PMS_P2;Temp;Humidity;BMP_temperature;BMP_pressure;BME280_temperature;BME280_humidity;BME280_pressure;Samples;Min_cycle;Max_cycle;Signal;HPM_P1;HPM_P2
2023/03/26 00:01:49;;;;;;;5.60;1.90;;;;;;;5.64;100.00;97592.31;4159215;28;20441;-73
2023/03/26 00:03:56;;;;;;;3.55;1.73;;;;;;;5.63;100.00;97593.47;4158861;28;20156;-73
2023/03/26 00:06:11;;;;;;;2.10;1.45;;;;;;;5.60;100.00;97582.41;4159903;28;20034;-73
2023/03/26 00:08:12;;;;;;;2.03;1.30;;;;;;;5.64;100.00;97588.78;4159411;28;20053;-73
2023/03/26 00:10:14;;;;;;;2.30;1.52;;;;;;;5.57;100.00;97586.69;4159537;28;20025;-73
2023/03/26 00:12:14;;;;;;;6.25;2.00;;;;;;;5.56;100.00;97581.59;4159232;28;20033;-73
2023/03/26 00:14:16;;;;;;;4.03;1.77;;;;;;;5.56;100.00;97587.88;4159215;28;20029;-71
2023/03/26 00:16:18;;;;;;;2.72;1.80;;;;;;;5.51;100.00;97596.38;4158830;28;20029;-71
2023/03/26 00:18:23;;;;;;;3.50;1.73;;;;;;;5.45;100.00;97588.81;4159351;28;20033;-73
2023/03/26 00:20:24;;;;;;;3.53;1.75;;;;;;;5.43;100.00;97583.72;4159554;28;20095;-73
2023/03/26 00:22:25;;;;;;;4.90;2.20;;;;;;;5.43;100.00;97586.44;4159021;28;20125;-73
2023/03/26 00:24:28;;;;;;;2.67;1.70;;;;;;;5.44;100.00;97590.78;4159066;28;20749;-73
2023/03/26 00:26:30;;;;;;;4.25;1.98;;;;;;;5.46;100.00;97590.41;4159315;28;20045;-73
2023/03/26 00:28:30;;;;;;;3.45;1.73;;;;;;;5.42;100.00;97590.34;4159477;28;20064;-73
2023/03/26 00:30:32;;;;;;;3.58;1.83;;;;;;;5.47;100.00;97586.53;4159034;28;20478;-73
2023/03/26 00:32:32;;;;;;;5.95;1.92;;;;;;;5.43;100.00;97591.94;4158459;28;20041;-73
2023/03/26 00:34:33;;;;;;;6.80;1.95;;;;;;;5.38;100.00;97584.03;4159422;28;20041;-73
2023/03/26 00:36:34;;;;;;;6.32;1.75;;;;;;;5.38;100.00;97580.47;4159319;28;20152;-73
2023/03/26 00:38:37;;;;;;;4.80;2.00;;;;;;;5.38;100.00;97575.81;4158450;28;20056;-73
2023/03/26 00:40:42;;;;;;;5.63;1.77;;;;;;;5.35;100.00;97571.03;4158697;28;20393;-73
2023/03/26 00:42:43;;;;;;;5.13;1.60;;;;;;;5.34;100.00;97577.69;4158530;28;20128;-73
2023/03/26 00:44:43;;;;;;;4.93;1.50;;;;;;;5.30;100.00;97572.13;4158780;28;20112;-73
2023/03/26 00:46:43;;;;;;;2.65;1.80;;;;;;;5.28;100.00;97565.41;4159128;28;20045;-73
2023/03/26 00:48:45;;;;;;;2.45;1.80;;;;;;;5.37;100.00;97563.22;4158449;28;20041;-73
2023/03/26 00:50:47;;;;;;;4.38;2.15;;;;;;;5.38;100.00;97569.50;4158437;28;20134;-73
2023/03/26 00:52:47;;;;;;;4.03;1.80;;;;;;;5.34;100.00;97570.22;4157979;28;20057;-73
2023/03/26 00:54:50;;;;;;;3.30;1.60;;;;;;;5.34;100.00;97561.22;4158827;28;20576;-72
2023/03/26 00:56:54;;;;;;;1.88;1.30;;;;;;;5.33;100.00;97565.13;4158673;28;20045;-73
2023/03/26 00:58:56;;;;;;;4.80;1.65;;;;;;;5.39;100.00;97573.84;4158718;28;20099;-73
2023/03/26 01:00:58;;;;;;;5.80;1.40;;;;;;;5.37;100.00;97565.97;4157970;28;20497;-73
2023/03/26 01:03:00;;;;;;;2.78;1.42;;;;;;;5.41;100.00;97569.56;4157645;28;20045;-72
2023/03/26 01:05:41;;;;;;;3.88;1.50;;;;;;;5.44;100.00;97565.28;4158467;28;20049;-73
2023/03/26 01:07:43;;;;;;;2.97;1.60;;;;;;;5.46;100.00;97563.78;4158635;28;20046;-72
2023/03/26 01:09:49;;;;;;;3.30;1.67;;;;;;;5.52;100.00;97567.78;4158434;28;20087;-72
2023/03/26 01:11:49;;;;;;;2.03;1.38;;;;;;;5.56;100.00;97565.91;4158458;28;20079;-72
2023/03/26 01:13:59;;;;;;;5.95;1.67;;;;;;;5.60;100.00;97571.44;4157896;28;20506;-72
2023/03/26 01:16:00;;;;;;;4.65;1.88;;;;;;;5.71;100.00;97566.13;4157677;28;20176;-72
2023/03/26 01:18:03;;;;;;;7.15;2.00;;;;;;;5.75;100.00;97562.28;4158267;28;20049;-73
2023/03/26 01:20:25;;;;;;;4.10;1.83;;;;;;;5.82;100.00;97559.66;4158034;28;20048;-73
2023/03/26 01:22:26;;;;;;;4.55;2.13;;;;;;;5.88;100.00;97557.41;4157998;28;20129;-73
2023/03/26 01:24:26;;;;;;;6.68;2.17;;;;;;;5.90;100.00;97552.31;4157599;28;20486;-72
2023/03/26 01:26:52;;;;;;;6.38;1.98;;;;;;;5.95;100.00;97557.50;4158116;28;20099;-72
2023/03/26 01:28:57;;;;;;;6.60;2.13;;;;;;;6.01;100.00;97550.53;4157515;28;20045;-72
2023/03/26 01:31:16;;;;;;;6.70;2.10;;;;;;;6.08;100.00;97556.16;4158159;28;20099;-72
2023/03/26 01:33:32;;;;;;;9.43;2.10;;;;;;;6.06;100.00;97552.19;4157415;28;20084;-72
2023/03/26 01:35:59;;;;;;;5.30;2.00;;;;;;;6.10;100.00;97553.81;4157966;28;20036;-72
2023/03/26 01:38:11;;;;;;;8.13;1.80;;;;;;;6.10;100.00;97542.03;4157704;28;20497;-72
2023/03/26 01:40:27;;;;;;;13.25;2.17;;;;;;;6.11;100.00;97538.91;4158038;28;20132;-72
2023/03/26 01:42:39;;;;;;;2.72;1.60;;;;;;;6.10;100.00;97544.78;4157746;28;20057;-72
2023/03/26 01:44:58;;;;;;;2.10;1.55;;;;;;;6.07;100.00;97551.03;4157721;28;20466;-72
2023/03/26 01:47:00;;;;;;;5.70;1.85;;;;;;;6.11;100.00;97552.66;4157681;28;20052;-72
2023/03/26 01:49:02;;;;;;;5.10;2.00;;;;;;;6.20;100.00;97544.91;4157952;28;20082;-72
2023/03/26 01:51:03;;;;;;;5.07;2.28;;;;;;;6.25;100.00;97537.53;4157757;28;20041;-72
2023/03/26 01:53:04;;;;;;;7.13;1.80;;;;;;;6.30;100.00;97545.47;4157916;28;20041;-72
2023/03/26 01:55:10;;;;;;;8.85;2.08;;;;;;;6.36;100.00;97552.19;4157275;28;20045;-72
2023/03/26 01:57:33;;;;;;;6.40;1.77;;;;;;;6.31;100.00;97538.81;4157488;28;20045;-72
2023/03/26 01:59:58;;;;;;;9.07;1.63;;;;;;;6.38;100.00;97542.44;4156863;28;20068;-72
2023/03/26 02:02:18;;;;;;;8.27;2.17;;;;;;;6.46;100.00;97554.31;4157872;28;20080;-72
2023/03/26 02:04:28;;;;;;;4.15;1.45;;;;;;;6.50;100.00;97549.63;4157300;28;20056;-72
2023/03/26 02:06:41;;;;;;;5.60;1.90;;;;;;;6.47;100.00;97545.69;4158237;28;20041;-72
2023/03/26 02:08:52;;;;;;;3.03;1.63;;;;;;;6.47;100.00;97553.13;4157237;28;20037;-72
2023/03/26 02:10:57;;;;;;;4.28;2.00;;;;;;;6.52;100.00;97552.78;4158814;28;20477;-72
2023/03/26 02:12:58;;;;;;;7.38;1.90;;;;;;;6.46;100.00;97559.81;4157028;28;20040;-72
2023/03/26 02:15:00;;;;;;;14.20;2.53;;;;;;;6.47;100.00;97564.91;4157572;28;20486;-72
2023/03/26 02:17:00;;;;;;;5.85;1.85;;;;;;;6.46;100.00;97555.09;4157700;28;20239;-72
2023/03/26 02:19:03;;;;;;;2.97;1.67;;;;;;;6.33;100.00;97559.22;4157853;28;20045;-72
2023/03/26 02:21:09;;;;;;;5.20;2.00;;;;;;;6.30;100.00;97570.19;4157906;28;20038;-72
2023/03/26 02:23:10;;;;;;;6.18;2.35;;;;;;;6.12;100.00;97572.66;4157085;28;20160;-72
2023/03/26 02:25:13;;;;;;;2.88;2.05;;;;;;;6.02;100.00;97568.59;4157978;28;20077;-73
2023/03/26 02:27:17;;;;;;;5.22;1.92;;;;;;;5.87;100.00;97575.78;4156331;28;20486;-73
2023/03/26 02:29:19;;;;;;;6.82;2.35;;;;;;;5.91;100.00;97573.94;4161004;28;20037;-73
2023/03/26 02:31:20;;;;;;;2.90;1.50;;;;;;;5.87;100.00;97564.81;4161390;28;20474;-73
2023/03/26 02:33:20;;;;;;;3.50;1.63;;;;;;;5.79;100.00;97570.56;4159878;28;20037;-73
2023/03/26 02:35:21;;;;;;;2.60;1.20;;;;;;;5.82;100.00;97569.84;4161138;28;20036;-73
2023/03/26 02:37:21;;;;;;;2.30;1.30;;;;;;;5.72;100.00;97559.50;4160868;28;20497;-73
2023/03/26 02:39:22;;;;;;;1.92;1.42;;;;;;;5.66;100.00;97553.53;4160903;28;20037;-73
2023/03/26 02:41:23;;;;;;;1.58;1.02;;;;;;;5.63;100.00;97552.31;4161022;28;20046;-72
2023/03/26 02:43:23;;;;;;;1.17;0.80;;;;;;;5.59;100.00;97551.44;4159939;28;20053;-72
2023/03/26 02:45:23;;;;;;;1.67;0.90;;;;;;;5.58;100.00;97560.06;4160419;28;20081;-72
2023/03/26 02:47:23;;;;;;;1.88;0.70;;;;;;;5.53;100.00;97552.13;4161005;28;20233;-72
2023/03/26 02:49:24;;;;;;;1.42;1.33;;;;;;;5.56;100.00;97560.44;4160976;28;20147;-72
2023/03/26 02:51:24;;;;;;;2.05;1.08;;;;;;;5.52;100.00;97553.28;4160882;28;20132;-72
2023/03/26 02:53:28;;;;;;;2.03;0.90;;;;;;;5.46;100.00;97557.47;4159747;28;20493;-72
2023/03/26 02:55:29;;;;;;;1.38;1.27;;;;;;;5.47;100.00;97559.88;4160580;28;20052;-72
2023/03/26 02:57:30;;;;;;;2.67;0.90;;;;;;;5.47;100.00;97561.84;4160604;28;20060;-72
2023/03/26 02:59:30;;;;;;;1.95;0.98;;;;;;;5.39;100.00;97555.44;4160333;28;20124;-72
2023/03/26 03:01:33;;;;;;;2.45;1.10;;;;;;;5.30;100.00;97549.41;4160425;28;20482;-73
2023/03/26 03:03:35;;;;;;;2.28;1.00;;;;;;;5.30;100.00;97538.44;4160371;28;20041;-73
2023/03/26 03:05:36;;;;;;;1.70;1.23;;;;;;;5.28;100.00;97546.22;4160089;28;20034;-72
2023/03/26 03:07:37;;;;;;;4.43;1.23;;;;;;;5.27;100.00;97539.16;4160534;28;20041;-72
2023/03/26 03:09:38;;;;;;;3.03;1.08;;;;;;;5.22;100.00;97534.78;4160379;28;20175;-73
2023/03/26 03:11:39;;;;;;;2.50;1.10;;;;;;;5.25;100.00;97534.03;4159971;28;20260;-72
2023/03/26 03:13:40;;;;;;;2.93;1.43;;;;;;;5.27;100.00;97528.19;4159051;28;20052;-73
2023/03/26 03:15:40;;;;;;;4.80;1.40;;;;;;;5.23;100.00;97530.09;4160167;28;20120;-73
2023/03/26 03:17:40;;;;;;;4.60;1.50;;;;;;;5.25;100.00;97523.06;4160766;28;20041;-72
2023/03/26 03:19:41;;;;;;;3.53;1.23;;;;;;;5.25;100.00;97527.75;4160459;28;20038;-72
2023/03/26 03:21:41;;;;;;;4.60;1.60;;;;;;;5.17;100.00;97528.78;4160114;28;20140;-72
2023/03/26 03:23:42;;;;;;;8.80;1.63;;;;;;;5.15;100.00;97531.91;4158920;28;20044;-72
2023/03/26 03:25:42;;;;;;;2.55;1.40;;;;;;;5.11;100.00;97538.47;4159654;28;20041;-72
2023/03/26 03:27:43;;;;;;;7.78;1.60;;;;;;;5.07;100.00;97536.47;4160326;28;20538;-72
2023/03/26 03:29:43;;;;;;;4.57;1.50;;;;;;;5.06;100.00;97542.31;4160178;28;20053;-72
2023/03/26 03:31:44;;;;;;;3.80;1.45;;;;;;;5.05;100.00;97533.31;4160329;28;20053;-72
2023/03/26 03:33:45;;;;;;;2.70;1.42;;;;;;;5.04;100.00;97539.91;4158938;28;20497;-72
2023/03/26 03:35:47;;;;;;;5.53;1.48;;;;;;;5.04;100.00;97542.66;4160115;28;20042;-72
2023/03/26 03:37:48;;;;;;;4.40;1.48;;;;;;;5.08;100.00;97531.78;4159579;28;20501;-72
2023/03/26 03:39:48;;;;;;;5.78;1.95;;;;;;;5.10;100.00;97536.88;4159341;28;20045;-72
2023/03/26 03:41:48;;;;;;;4.20;1.40;;;;;;;5.11;100.00;97541.22;4160232;28;20116;-72
2023/03/26 03:43:50;;;;;;;3.03;1.27;;;;;;;5.14;100.00;97535.81;4158813;28;20141;-72
2023/03/26 03:45:50;;;;;;;3.93;1.70;;;;;;;5.17;100.00;97529.59;4159996;28;20575;-72
2023/03/26 03:47:51;;;;;;;2.33;1.60;;;;;;;5.18;100.00;97538.59;4159956;28;20049;-72
2023/03/26 03:49:52;;;;;;;5.90;1.55;;;;;;;5.19;100.00;97540.97;4160223;28;20041;-72
2023/03/26 03:51:52;;;;;;;4.57;1.50;;;;;;;5.18;100.00;97539.38;4160121;28;20076;-72
2023/03/26 03:53:54;;;;;;;5.43;2.38;;;;;;;5.21;100.00;97546.91;4158270;28;20114;-72
2023/03/26 03:55:55;;;;;;;4.17;2.00;;;;;;;5.23;100.00;97549.28;4159301;28;20073;-72
2023/03/26 03:57:57;;;;;;;3.15;1.60;;;;;;;5.24;100.00;97543.41;4160781;28;20319;-72
2023/03/26 03:59:57;;;;;;;3.80;1.77;;;;;;;5.21;100.00;97535.13;4159966;28;20971;-72
2023/03/26 04:01:58;;;;;;;5.10;1.58;;;;;;;5.20;100.00;97539.81;4159706;28;20038;-72
2023/03/26 04:03:58;;;;;;;7.70;1.70;;;;;;;5.19;100.00;97538.22;4158470;28;20061;-72
2023/03/26 04:05:59;;;;;;;5.70;1.77;;;;;;;5.17;100.00;97537.81;4159415;28;20052;-72
2023/03/26 04:07:59;;;;;;;5.20;1.80;;;;;;;5.14;100.00;97541.28;4159916;28;20052;-72
2023/03/26 04:10:03;;;;;;;3.15;1.58;;;;;;;5.12;100.00;97535.34;4159104;28;20131;-72
2023/03/26 04:12:03;;;;;;;7.65;1.70;;;;;;;5.08;100.00;97542.75;4158155;28;20053;-72
2023/03/26 04:14:04;;;;;;;2.20;1.23;;;;;;;5.07;100.00;97536.47;4158838;28;20040;-72
2023/03/26 04:16:04;;;;;;;3.65;1.65;;;;;;;5.04;100.00;97536.38;4159193;28;20458;-72
2023/03/26 04:18:09;;;;;;;4.05;1.65;;;;;;;5.06;100.00;97532.16;4159448;28;20076;-72
2023/03/26 04:20:14;;;;;;;6.28;1.70;;;;;;;5.08;100.00;97538.06;4159429;28;20029;-72
2023/03/26 04:22:17;;;;;;;5.50;1.33;;;;;;;5.09;100.00;97536.09;4158106;28;20032;-72
2023/03/26 04:24:19;;;;;;;4.43;1.80;;;;;;;5.09;100.00;97536.09;4157755;28;20116;-72
2023/03/26 04:26:19;;;;;;;5.15;1.73;;;;;;;5.08;100.00;97529.03;4159189;28;20343;-72
2023/03/26 04:28:45;;;;;;;5.40;1.55;;;;;;;5.22;100.00;97525.75;4159134;28;20035;-72
2023/03/26 04:30:45;;;;;;;3.13;1.23;;;;;;;5.21;100.00;97521.41;4158730;28;20061;-72
2023/03/26 04:32:45;;;;;;;5.25;1.90;;;;;;;5.22;100.00;97521.06;4159686;28;20389;-72
2023/03/26 04:34:46;;;;;;;2.97;1.80;;;;;;;5.21;100.00;97516.75;4160452;28;20496;-72
2023/03/26 04:36:47;;;;;;;5.68;2.05;;;;;;;5.22;100.00;97523.81;4159087;28;20389;-72
2023/03/26 04:38:50;;;;;;;3.92;1.50;;;;;;;5.24;100.00;97520.69;4158479;28;20049;-72
2023/03/26 04:40:51;;;;;;;7.47;2.25;;;;;;;5.22;100.00;97515.56;4159048;28;20046;-72
2023/03/26 04:42:53;;;;;;;4.57;1.90;;;;;;;5.25;100.00;97511.31;4158504;28;20048;-72
2023/03/26 04:44:53;;;;;;;7.93;2.08;;;;;;;5.25;100.00;97525.00;4158533;28;20461;-72
2023/03/26 04:46:54;;;;;;;5.10;2.20;;;;;;;5.23;100.00;97514.41;4158794;28;20045;-72
2023/03/26 04:48:54;;;;;;;3.05;1.58;;;;;;;5.21;100.00;97507.69;4159022;28;20064;-72
2023/03/26 04:50:56;;;;;;;8.02;2.95;;;;;;;5.22;100.00;97501.06;4157671;28;20045;-72
2023/03/26 04:52:57;;;;;;;5.38;1.90;;;;;;;5.21;100.00;97504.94;4158071;28;20045;-72
2023/03/26 04:54:58;;;;;;;5.93;2.75;;;;;;;5.18;100.00;97505.69;4158504;28;20436;-72
2023/03/26 04:57:02;;;;;;;5.15;1.95;;;;;;;5.14;100.00;97491.16;4159116;28;20355;-72
2023/03/26 04:59:03;;;;;;;6.15;2.00;;;;;;;5.16;100.00;97505.28;4158521;28;20129;-72
2023/03/26 05:01:04;;;;;;;5.20;2.30;;;;;;;5.11;100.00;97497.34;4158714;28;20069;-72
2023/03/26 05:03:05;;;;;;;7.45;2.15;;;;;;;5.09;100.00;97505.94;4157600;28;20065;-72
2023/03/26 05:05:05;;;;;;;3.45;1.60;;;;;;;5.07;100.00;97511.00;4158664;28;20069;-72
2023/03/26 05:07:06;;;;;;;7.63;2.17;;;;;;;5.04;100.00;97508.97;4158510;28;20038;-72
2023/03/26 05:09:09;;;;;;;3.97;2.40;;;;;;;5.07;100.00;97511.00;4158588;28;20033;-72
2023/03/26 05:11:10;;;;;;;7.28;2.50;;;;;;;5.06;100.00;97502.00;4158668;28;20144;-72
2023/03/26 05:13:10;;;;;;;4.90;1.95;;;;;;;5.09;100.00;97508.69;4158196;28;20088;-72
2023/03/26 05:15:13;;;;;;;5.82;1.92;;;;;;;5.08;100.00;97498.88;4158921;28;20045;-71
2023/03/26 05:17:14;;;;;;;8.35;2.10;;;;;;;5.07;100.00;97497.28;4158144;28;20083;-72
2023/03/26 05:19:14;;;;;;;4.20;1.83;;;;;;;5.10;100.00;97496.56;4158875;28;20490;-72
2023/03/26 05:21:15;;;;;;;9.50;2.47;;;;;;;5.05;100.00;97489.44;4157874;28;20079;-72
2023/03/26 05:23:15;;;;;;;4.82;1.92;;;;;;;5.02;100.00;97490.16;4157724;28;20049;-72
2023/03/26 05:25:17;;;;;;;4.85;1.80;;;;;;;4.99;100.00;97487.38;4157857;28;20102;-72
2023/03/26 05:27:19;;;;;;;7.35;1.75;;;;;;;4.88;100.00;97478.97;4158177;28;20056;-72
2023/03/26 05:29:21;;;;;;;5.70;2.45;;;;;;;4.85;100.00;97484.38;4158132;28;20329;-72
2023/03/26 05:31:21;;;;;;;5.10;1.77;;;;;;;4.76;100.00;97481.84;4158332;28;20049;-72
2023/03/26 05:33:22;;;;;;;9.68;2.30;;;;;;;4.72;100.00;97476.31;4157440;28;20064;-72
2023/03/26 05:35:22;;;;;;;6.22;2.25;;;;;;;4.67;100.00;97465.66;4157960;28;20382;-72
2023/03/26 05:37:25;;;;;;;9.85;2.58;;;;;;;4.69;100.00;97476.25;4157534;28;20119;-72
2023/03/26 05:39:26;;;;;;;8.13;2.33;;;;;;;4.71;100.00;97471.97;4158050;28;20033;-72
2023/03/26 05:41:26;;;;;;;7.85;2.47;;;;;;;4.72;100.00;97472.78;4157946;28;20037;-72
2023/03/26 05:43:27;;;;;;;7.38;1.88;;;;;;;4.67;100.00;97465.66;4157529;28;20211;-72
2023/03/26 05:45:28;;;;;;;9.45;2.33;;;;;;;4.64;100.00;97462.84;4158115;28;20730;-72
2023/03/26 05:47:28;;;;;;;8.13;2.72;;;;;;;4.66;100.00;97468.75;4157614;28;20045;-72
2023/03/26 05:49:29;;;;;;;6.55;3.00;;;;;;;4.67;100.00;97460.16;4158011;28;20913;-71
2023/03/26 05:51:29;;;;;;;7.28;2.50;;;;;;;4.71;100.00;97471.97;4157600;28;20042;-72
2023/03/26 05:53:30;;;;;;;6.82;2.28;;;;;;;4.79;100.00;97468.22;4157348;28;20099;-72
2023/03/26 05:55:32;;;;;;;5.07;2.08;;;;;;;4.84;100.00;97460.84;4156300;28;20477;-71
2023/03/26 05:57:34;;;;;;;6.07;2.10;;;;;;;4.84;100.00;97458.91;4157650;28;20080;-72
2023/03/26 05:59:35;;;;;;;8.07;2.67;;;;;;;4.91;100.00;97461.78;4157738;28;20458;-72
2023/03/26 06:01:35;;;;;;;7.97;2.20;;;;;;;4.98;100.00;97458.38;4157267;28;20056;-72
2023/03/26 06:03:38;;;;;;;5.72;2.15;;;;;;;5.01;100.00;97460.38;4157194;28;20041;-72
2023/03/26 06:05:38;;;;;;;7.45;1.92;;;;;;;5.07;100.00;97458.91;4157570;28;20401;-72
2023/03/26 06:07:39;;;;;;;8.73;3.50;;;;;;;5.10;100.00;97455.44;4157912;28;20049;-72
2023/03/26 06:09:39;;;;;;;5.18;1.83;;;;;;;5.17;100.00;97460.25;4157151;28;20128;-72
2023/03/26 06:11:40;;;;;;;12.43;3.28;;;;;;;5.20;100.00;97460.28;4158343;28;20124;-72
2023/03/26 06:13:42;;;;;;;6.82;2.45;;;;;;;5.24;100.00;97457.63;4156784;28;20103;-72
2023/03/26 06:15:42;;;;;;;8.07;2.80;;;;;;;5.26;100.00;97461.56;4157783;28;20049;-72
2023/03/26 06:17:42;;;;;;;6.00;2.85;;;;;;;5.29;100.00;97457.28;4158988;28;20490;-72
2023/03/26 06:19:43;;;;;;;7.88;2.78;;;;;;;5.32;100.00;97453.81;4157475;28;20160;-72
2023/03/26 06:21:43;;;;;;;5.18;2.42;;;;;;;5.37;100.00;97456.25;4157472;28;20553;-72
2023/03/26 06:23:43;;;;;;;6.70;2.45;;;;;;;5.40;100.00;97450.03;4157070;28;20034;-72
2023/03/26 06:25:47;;;;;;;7.90;2.80;;;;;;;5.47;100.00;97452.09;4157714;28;20037;-72
2023/03/26 06:27:47;;;;;;;8.07;2.72;;;;;;;5.48;100.00;97445.44;4157288;28;20123;-72
2023/03/26 06:29:47;;;;;;;6.30;2.42;;;;;;;5.47;100.00;97447.41;4157927;28;20458;-72
2023/03/26 06:31:48;;;;;;;4.65;2.45;;;;;;;5.54;100.00;97441.22;4157707;28;20119;-72
2023/03/26 06:33:48;;;;;;;7.93;2.63;;;;;;;5.54;100.00;97444.75;4156312;28;20095;-72
2023/03/26 06:35:49;;;;;;;8.90;3.03;;;;;;;5.57;100.00;97433.03;4157284;28;20037;-71
2023/03/26 06:37:49;;;;;;;6.07;3.03;;;;;;;5.62;100.00;97429.16;4157293;28;20470;-72
2023/03/26 06:39:49;;;;;;;5.32;2.28;;;;;;;5.70;100.00;97430.06;4157924;28;20046;-72
2023/03/26 06:41:50;;;;;;;7.00;2.30;;;;;;;5.80;100.00;97424.75;4157318;28;20513;-72
2023/03/26 06:43:50;;;;;;;5.72;2.60;;;;;;;5.87;100.00;97413.03;4156651;28;20568;-72
2023/03/26 06:45:51;;;;;;;5.45;2.03;;;;;;;5.93;100.00;97416.28;4157804;28;20107;-72
2023/03/26 06:47:52;;;;;;;8.30;2.22;;;;;;;5.97;100.00;97406.94;4106675;28;20052;-72
2023/03/26 06:49:52;;;;;;;9.30;2.40;;;;;;;6.03;100.00;97410.13;4157122;28;20050;-72
2023/03/26 06:51:52;;;;;;;8.50;2.38;;;;;;;6.14;100.00;97413.81;4157734;28;20471;-72
2023/03/26 06:53:52;;;;;;;7.65;2.78;;;;;;;6.20;100.00;97412.28;4156744;28;20181;-72
2023/03/26 06:55:53;;;;;;;6.55;2.30;;;;;;;6.27;100.00;97406.88;4157259;28;20041;-71
2023/03/26 06:57:54;;;;;;;12.95;3.08;;;;;;;6.31;100.00;97413.22;4157191;28;20037;-72
2023/03/26 06:59:55;;;;;;;9.93;2.63;;;;;;;6.35;100.00;97407.75;4157367;28;20045;-72
2023/03/26 07:01:55;;;;;;;6.10;2.47;;;;;;;6.41;100.00;97404.28;4157192;28;20907;-72
2023/03/26 07:03:55;;;;;;;8.93;2.78;;;;;;;6.41;100.00;97398.81;4156588;28;20862;-72
2023/03/26 07:05:55;;;;;;;8.45;2.30;;;;;;;6.50;100.00;97394.97;4157240;28;20056;-72
2023/03/26 07:07:56;;;;;;;9.60;2.80;;;;;;;6.53;100.00;97399.69;4157363;28;20085;-72
2023/03/26 07:09:56;;;;;;;8.30;2.15;;;;;;;6.53;100.00;97389.50;4157031;28;20061;-72
2023/03/26 07:11:57;;;;;;;4.85;1.83;;;;;;;6.58;100.00;97396.63;4157428;28;20280;-72
2023/03/26 07:13:58;;;;;;;6.70;2.38;;;;;;;6.57;100.00;97387.59;4158659;28;20041;-72
2023/03/26 07:15:58;;;;;;;6.88;2.15;;;;;;;6.60;100.00;97394.28;4160678;28;20089;-71
2023/03/26 07:17:59;;;;;;;5.63;2.33;;;;;;;6.68;100.00;97393.97;4160127;28;20120;-72
2023/03/26 07:20:00;;;;;;;8.52;2.83;;;;;;;6.66;100.00;97390.81;4160330;28;20041;-72
2023/03/26 07:22:01;;;;;;;8.55;2.53;;;;;;;6.64;100.00;97387.66;4159947;28;20080;-72
2023/03/26 07:24:01;;;;;;;9.85;2.63;;;;;;;6.70;100.00;97388.91;4158951;28;20045;-72
2023/03/26 07:26:21;;;;;;;7.43;2.55;;;;;;;6.68;100.00;97382.97;4159845;28;20119;-72
2023/03/26 07:28:42;;;;;;;9.90;2.50;;;;;;;6.74;100.00;97383.41;4159862;28;20065;-72
2023/03/26 07:30:52;;;;;;;7.80;2.95;;;;;;;6.83;100.00;97381.13;4160380;28;20497;-72
2023/03/26 07:33:00;;;;;;;4.63;2.08;;;;;;;6.96;100.00;97378.91;4158878;28;20041;-71
2023/03/26 07:35:21;;;;;;;5.85;2.10;;;;;;;7.08;100.00;97377.81;4160818;28;20076;-72
2023/03/26 07:37:45;;;;;;;11.38;2.70;;;;;;;7.16;100.00;97384.94;4159616;28;20080;-72
2023/03/26 07:39:59;;;;;;;9.10;2.28;;;;;;;7.21;100.00;97374.38;4159801;28;20087;-72
2023/03/26 07:42:29;;;;;;;5.50;2.10;;;;;;;7.39;100.00;97368.97;4158759;28;20049;-72
2023/03/26 07:44:34;;;;;;;6.85;2.40;;;;;;;7.55;100.00;97369.47;4143090;28;20042;-72
2023/03/26 07:46:35;;;;;;;6.28;2.63;;;;;;;7.55;100.00;97361.22;4143154;28;20038;-72
2023/03/26 07:48:43;;;;;;;7.93;2.75;;;;;;;7.68;100.00;97356.16;4143122;28;20444;-72
2023/03/26 07:50:44;;;;;;;8.63;2.30;;;;;;;7.74;100.00;97362.88;4143306;28;20257;-72
2023/03/26 07:52:45;;;;;;;11.30;3.30;;;;;;;7.75;100.00;97360.91;4143372;28;20034;-72
2023/03/26 07:54:46;;;;;;;9.80;2.97;;;;;;;7.71;100.00;97352.66;4143229;28;20112;-72
2023/03/26 07:57:00;;;;;;;6.93;2.22;;;;;;;7.74;100.00;97357.38;4142575;28;20056;-72
2023/03/26 07:59:34;;;;;;;7.63;2.35;;;;;;;7.77;100.00;97355.78;4143293;28;20038;-72
2023/03/26 08:01:53;;;;;;;5.70;2.67;;;;;;;7.78;100.00;97351.91;4143117;28;20054;-72
2023/03/26 08:04:08;;;;;;;7.38;2.10;;;;;;;7.74;100.00;97348.31;4142329;28;20057;-71
2023/03/26 08:06:25;;;;;;;7.03;2.28;;;;;;;7.70;100.00;97355.78;4141776;28;20050;-72
2023/03/26 08:08:44;;;;;;;7.53;2.00;;;;;;;7.68;100.00;97356.16;4143032;28;20077;-72
2023/03/26 08:11:03;;;;;;;6.70;2.58;;;;;;;7.70;100.00;97356.56;4143312;28;20116;-72
2023/03/26 08:13:23;;;;;;;5.82;1.83;;;;;;;7.70;100.00;97355.78;4141807;28;20190;-72
2023/03/26 08:15:24;;;;;;;6.45;1.83;;;;;;;7.73;100.00;97355.78;4145317;28;20116;-72
2023/03/26 08:17:41;;;;;;;6.70;2.10;;;;;;;7.74;100.00;97348.31;4155219;28;20393;-72
2023/03/26 08:20:07;;;;;;;7.40;2.15;;;;;;;7.79;100.00;97348.75;4159609;28;20073;-72
2023/03/26 08:22:24;;;;;;;6.65;2.83;;;;;;;7.86;100.00;97351.53;4158849;28;20045;-72
2023/03/26 08:24:39;;;;;;;6.75;1.92;;;;;;;7.90;100.00;97343.28;4158775;28;20034;-72
2023/03/26 08:26:57;;;;;;;7.70;2.05;;;;;;;7.95;100.00;97342.13;4159576;28;20405;-72
2023/03/26 08:29:17;;;;;;;6.72;2.47;;;;;;;7.99;100.00;97345.66;4158896;28;20075;-72
2023/03/26 08:31:22;;;;;;;6.38;2.00;;;;;;;8.01;100.00;97332.28;4158447;28;20099;-72
2023/03/26 08:33:26;;;;;;;5.22;1.85;;;;;;;8.02;100.00;97344.88;4158479;28;20048;-72
2023/03/26 08:35:27;;;;;;;5.80;1.80;;;;;;;8.05;99.02;97344.13;4159450;28;20443;-72
2023/03/26 08:37:28;;;;;;;6.93;1.80;;;;;;;8.06;99.20;97342.94;4158791;28;20116;-72
2023/03/26 08:39:28;;;;;;;4.97;2.05;;;;;;;8.01;99.54;97340.56;4159110;28;20041;-72
2023/03/26 08:41:53;;;;;;;8.75;2.35;;;;;;;8.02;100.00;97333.84;4159123;28;20037;-72
2023/03/26 08:44:01;;;;;;;8.60;1.80;;;;;;;8.04;100.00;97331.53;4158442;28;20107;-72
2023/03/26 08:46:14;;;;;;;6.15;2.17;;;;;;;8.03;100.00;97324.44;4158710;28;20385;-72
2023/03/26 08:48:39;;;;;;;6.57;1.80;;;;;;;8.06;99.51;97318.16;4158639;28;20013;-72
2023/03/26 08:51:14;;;;;;;4.40;1.90;;;;;;;8.05;100.00;97317.38;4158698;28;20050;-72
2023/03/26 08:53:17;;;;;;;6.07;1.90;;;;;;;8.04;99.93;97312.25;4158440;28;20061;-72
2023/03/26 08:55:42;;;;;;;7.05;2.22;;;;;;;8.00;99.54;97309.47;4158863;28;20042;-72
2023/03/26 08:58:30;;;;;;;4.65;1.92;;;;;;;8.01;100.00;97310.25;4157774;28;20054;-72
2023/03/26 09:00:37;;;;;;;9.50;1.90;;;;;;;8.04;100.00;97317.75;4138338;28;20110;-72
2023/03/26 09:02:49;;;;;;;12.23;1.83;;;;;;;8.01;100.00;97313.78;4157831;28;20461;-72
2023/03/26 09:05:19;;;;;;;8.88;2.90;;;;;;;8.05;100.00;97309.09;4157876;28;20055;-72
2023/03/26 09:07:45;;;;;;;12.52;3.63;;;;;;;8.09;100.00;97311.84;4158111;28;20064;-72
2023/03/26 09:09:51;;;;;;;6.45;2.35;;;;;;;8.13;100.00;97312.66;4157203;28;20038;-72
2023/03/26 09:12:20;;;;;;;7.63;2.08;;;;;;;8.15;100.00;97307.53;4158756;28;20131;-72
2023/03/26 09:14:50;;;;;;;11.68;3.45;;;;;;;8.17;100.00;97302.41;4157583;28;20118;-72
2023/03/26 09:17:05;;;;;;;5.05;2.67;;;;;;;8.17;100.00;97289.44;4158387;28;20053;-72
2023/03/26 09:19:23;;;;;;;13.48;4.05;;;;;;;8.20;100.00;97290.63;4158572;28;20099;-72
2023/03/26 09:21:42;;;;;;;5.05;2.33;;;;;;;8.23;100.00;97291.81;4158573;28;20080;-72
2023/03/26 09:24:10;;;;;;;7.75;2.58;;;;;;;8.29;100.00;97296.56;4157915;28;20057;-72
2023/03/26 09:26:38;;;;;;;10.27;3.42;;;;;;;8.34;100.00;97284.34;4157942;28;20188;-72
2023/03/26 09:29:00;;;;;;;5.63;3.33;;;;;;;8.42;100.00;97289.50;4158104;28;20045;-72
2023/03/26 09:31:36;;;;;;;8.93;2.97;;;;;;;8.40;100.00;97286.34;4158135;28;20156;-72
2023/03/26 09:33:55;;;;;;;7.57;3.05;;;;;;;8.44;100.00;97295.44;4157518;28;20395;-72
2023/03/26 09:36:07;;;;;;;6.03;2.83;;;;;;;8.41;100.00;97298.94;4157336;28;20041;-72
2023/03/26 09:38:45;;;;;;;7.50;2.42;;;;;;;8.40;100.00;97288.31;4157091;28;20368;-72
2023/03/26 09:41:09;;;;;;;4.38;2.20;;;;;;;8.32;100.00;97283.94;4156151;28;20047;-72
2023/03/26 09:43:47;;;;;;;7.57;2.72;;;;;;;8.32;100.00;97281.19;4157295;28;20076;-72
2023/03/26 09:45:50;;;;;;;6.30;2.38;;;;;;;8.31;100.00;97283.16;4157944;28;20045;-72
2023/03/26 09:48:28;;;;;;;5.68;2.67;;;;;;;8.33;100.00;97272.53;4157483;28;20045;-72
2023/03/26 09:50:37;;;;;;;6.95;2.47;;;;;;;8.37;100.00;97267.06;4158014;28;20048;-72
2023/03/26 09:53:12;;;;;;;5.35;2.75;;;;;;;8.41;100.00;97270.59;4157327;28;20489;-72
2023/03/26 09:55:24;;;;;;;5.57;2.50;;;;;;;8.45;100.00;97268.66;4158039;28;20068;-72